Time;durP1;ratioP1;P1;durP2;ratioP2;P2;SDS_P1;SDS_P2;PMS_P1;PMS_P2;Temp;Humidity;BMP_temperature;BMP_pressure;BME280_temperature;BME280_humidity;BME280_pressure;Samples;Min_cycle;Max_cycle;Signal;HPM_P1;HPM_P2
2023/07/09 00:00:18;;;;;;;7.87;6.87;;;25.10;99.90;;;;;;5014383;28;20641;-85
2023/07/09 00:02:44;;;;;;;8.13;6.20;;;25.00;99.90;;;;;;5009909;28;20212;-84
2023/07/09 00:05:16;;;;;;;8.23;6.23;;;24.90;99.90;;;;;;5011621;28;20821;-85
2023/07/09 00:07:45;;;;;;;12.47;6.93;;;24.90;99.90;;;;;;5024417;28;20877;-85
2023/07/09 00:10:17;;;;;;;9.63;7.37;;;24.80;99.90;;;;;;5024133;28;20941;-85
2023/07/09 00:12:43;;;;;;;7.60;6.30;;;24.70;99.90;;;;;;5015697;28;20468;-85
2023/07/09 00:15:11;;;;;;;8.10;6.60;;;24.60;99.90;;;;;;5016401;28;20439;-85
2023/07/09 00:17:39;;;;;;;10.20;6.40;;;24.50;99.90;;;;;;5006016;28;20295;-85
2023/07/09 00:20:13;;;;;;;10.23;7.43;;;24.40;99.90;;;;;;5023655;28;20472;-85
2023/07/09 00:22:39;;;;;;;7.77;5.77;;;24.40;99.90;;;;;;5017392;28;20525;-85
2023/07/09 00:25:05;;;;;;;8.93;6.80;;;24.40;99.90;;;;;;5011850;28;20456;-85
2023/07/09 00:27:30;;;;;;;14.37;6.23;;;24.50;99.90;;;;;;5019095;28;20486;-84
2023/07/09 00:29:56;;;;;;;7.23;5.90;;;24.50;99.90;;;;;;5019171;28;20479;-85
2023/07/09 00:32:21;;;;;;;10.07;6.70;;;24.50;99.90;;;;;;5019019;28;20747;-85
2023/07/09 00:34:51;;;;;;;10.17;6.20;;;24.50;99.90;;;;;;5004953;28;20177;-85
2023/07/09 00:37:19;;;;;;;7.20;6.40;;;24.50;99.90;;;;;;5011666;28;20191;-85
2023/07/09 00:39:48;;;;;;;8.77;6.60;;;24.50;99.90;;;;;;5022789;28;20435;-85
2023/07/09 00:42:20;;;;;;;10.53;6.30;;;24.50;99.90;;;;;;5023437;28;20502;-86
2023/07/09 00:44:51;;;;;;;11.97;6.70;;;24.50;99.90;;;;;;5023192;28;20432;-85
2023/07/09 00:48:06;;;;;;;8.73;6.80;;;24.50;99.90;;;;;;5019939;28;20466;-85
2023/07/09 00:50:48;;;;;;;9.60;6.50;;;24.50;99.90;;;;;;4922843;29;20447;-85
2023/07/09 00:53:33;;;;;;;12.57;6.60;;;24.50;99.90;;;;;;4919665;29;20446;-86
2023/07/09 00:56:08;;;;;;;10.03;6.60;;;24.50;99.90;;;;;;4986964;28;20528;-84
2023/07/09 00:58:42;;;;;;;9.00;5.80;;;24.50;99.90;;;;;;5007222;28;20515;-86
2023/07/09 01:01:11;;;;;;;11.60;6.10;;;24.50;99.90;;;;;;5016332;28;20510;-86
2023/07/09 01:03:51;;;;;;;8.53;6.70;;;24.50;99.90;;;;;;5015819;28;20434;-84
2023/07/09 01:06:24;;;;;;;8.93;6.07;;;24.40;99.90;;;;;;5009021;28;20464;-84
2023/07/09 01:08:53;;;;;;;9.57;7.00;;;24.40;99.90;;;;;;5018095;28;20448;-85
2023/07/09 01:11:21;;;;;;;7.83;6.53;;;24.40;99.90;;;;;;5013719;28;20480;-86
2023/07/09 01:13:50;;;;;;;8.00;6.33;;;24.30;99.90;;;;;;5014062;28;20431;-86
2023/07/09 01:16:16;;;;;;;12.13;6.50;;;24.30;99.90;;;;;;5028293;28;20434;-87
2023/07/09 01:18:43;;;;;;;8.67;6.83;;;24.20;99.90;;;;;;5002480;28;20519;-83
2023/07/09 01:21:15;;;;;;;8.23;6.77;;;24.20;99.90;;;;;;5017216;28;20480;-84
2023/07/09 01:23:43;;;;;;;12.40;7.40;;;24.20;99.90;;;;;;5029839;28;20433;-84
2023/07/09 01:26:11;;;;;;;8.80;6.97;;;24.20;99.90;;;;;;5024549;28;20450;-84
2023/07/09 01:28:36;;;;;;;8.00;6.53;;;24.10;99.90;;;;;;5001290;28;20959;-85
2023/07/09 01:31:04;;;;;;;11.20;7.00;;;24.10;99.90;;;;;;5024557;28;20461;-84
2023/07/09 01:33:30;;;;;;;10.07;7.00;;;24.10;99.90;;;;;;5003892;28;20185;-84
2023/07/09 01:36:00;;;;;;;11.47;7.60;;;24.10;99.90;;;;;;5013197;28;21044;-84
2023/07/09 01:38:30;;;;;;;9.60;7.20;;;24.10;99.90;;;;;;5013823;28;20430;-84
2023/07/09 01:40:56;;;;;;;10.60;7.60;;;24.00;99.90;;;;;;5021045;28;20439;-84
2023/07/09 01:43:21;;;;;;;10.60;7.10;;;24.00;99.90;;;;;;5014648;28;20836;-84
2023/07/09 01:45:49;;;;;;;9.30;6.43;;;24.10;99.90;;;;;;5006215;28;20450;-84
2023/07/09 01:48:15;;;;;;;10.07;7.30;;;24.10;99.90;;;;;;5010678;28;20216;-84
2023/07/09 01:50:43;;;;;;;9.03;6.80;;;24.10;99.90;;;;;;5024512;28;21910;-84
2023/07/09 01:53:11;;;;;;;10.37;7.50;;;24.10;99.90;;;;;;5019028;28;20442;-85
2023/07/09 01:55:37;;;;;;;11.73;7.37;;;24.10;99.90;;;;;;5014758;28;20527;-84
2023/07/09 01:58:06;;;;;;;10.20;8.07;;;24.00;99.90;;;;;;5025018;28;20596;-84
2023/07/09 02:00:32;;;;;;;9.40;7.60;;;24.00;99.90;;;;;;5015612;28;20191;-84
2023/07/09 02:03:00;;;;;;;12.97;7.30;;;23.90;99.90;;;;;;5009108;28;20834;-84
2023/07/09 02:05:26;;;;;;;8.87;6.93;;;23.90;99.90;;;;;;5024430;28;20990;-85
2023/07/09 02:07:52;;;;;;;7.90;6.70;;;23.90;99.90;;;;;;5024272;28;20471;-85
2023/07/09 02:10:18;;;;;;;9.63;7.37;;;23.90;99.90;;;;;;5023641;28;20425;-84
2023/07/09 02:12:44;;;;;;;11.93;8.70;;;23.90;99.90;;;;;;5010044;28;20478;-84
2023/07/09 02:15:10;;;;;;;10.43;7.50;;;23.80;99.90;;;;;;5014832;28;20178;-84
2023/07/09 02:17:36;;;;;;;16.23;8.10;;;23.80;99.90;;;;;;5020697;28;20532;-85
2023/07/09 02:20:04;;;;;;;10.80;7.57;;;23.80;99.90;;;;;;5013129;28;20462;-84
2023/07/09 02:22:29;;;;;;;12.07;8.60;;;23.70;99.90;;;;;;5024888;28;20703;-84
2023/07/09 02:24:55;;;;;;;10.83;8.20;;;23.70;99.90;;;;;;5017819;28;20442;-84
2023/07/09 02:27:21;;;;;;;13.73;7.90;;;23.70;99.90;;;;;;5009018;28;20220;-84
2023/07/09 02:29:47;;;;;;;10.53;8.30;;;23.70;99.90;;;;;;5021425;28;20176;-84
2023/07/09 02:32:19;;;;;;;9.13;7.50;;;23.70;99.90;;;;;;5008504;28;20469;-85
2023/07/09 02:34:48;;;;;;;13.90;8.30;;;23.60;99.90;;;;;;5012995;28;20441;-84
2023/07/09 02:37:20;;;;;;;13.03;8.27;;;23.70;99.90;;;;;;5001970;28;20445;-84
2023/07/09 02:39:46;;;;;;;9.00;7.53;;;23.70;99.90;;;;;;5018104;28;20453;-84
2023/07/09 02:42:14;;;;;;;11.00;7.57;;;23.70;99.90;;;;;;5015406;28;20558;-84
2023/07/09 02:44:41;;;;;;;10.97;8.10;;;23.70;99.90;;;;;;5008924;28;20853;-84
2023/07/09 02:47:09;;;;;;;12.53;8.60;;;23.60;99.90;;;;;;5016583;28;20473;-84
2023/07/09 02:49:35;;;;;;;12.13;7.67;;;23.60;99.90;;;;;;5011312;28;20440;-84
2023/07/09 02:52:00;;;;;;;13.17;7.80;;;23.60;99.90;;;;;;5018889;28;20525;-84
2023/07/09 02:54:26;;;;;;;11.80;7.43;;;23.60;99.90;;;;;;5017659;28;20181;-84
2023/07/09 02:56:52;;;;;;;8.43;7.20;;;23.60;99.90;;;;;;5019225;28;20666;-84
2023/07/09 02:59:18;;;;;;;10.90;7.67;;;23.60;99.90;;;;;;5031339;28;20185;-84
2023/07/09 03:01:43;;;;;;;9.77;7.50;;;23.50;99.90;;;;;;5022665;28;20211;-84
2023/07/09 03:04:09;;;;;;;12.40;7.87;;;23.50;99.90;;;;;;5008673;28;20213;-84
2023/07/09 03:06:38;;;;;;;19.63;8.00;;;23.50;99.90;;;;;;5020265;28;20589;-85
2023/07/09 03:09:04;;;;;;;10.80;7.80;;;23.50;99.90;;;;;;5022559;28;20185;-84
2023/07/09 03:11:31;;;;;;;17.00;8.07;;;23.30;99.90;;;;;;5019143;28;20444;-84
2023/07/09 03:13:58;;;;;;;12.77;8.50;;;23.30;99.90;;;;;;5020036;28;20506;-84
2023/07/09 03:16:27;;;;;;;16.73;7.50;;;23.30;99.90;;;;;;4998071;28;20456;-84
2023/07/09 03:18:53;;;;;;;12.40;7.60;;;23.30;99.90;;;;;;5026744;28;20431;-84
2023/07/09 03:21:18;;;;;;;18.17;9.03;;;23.30;99.90;;;;;;5008418;28;20472;-84
2023/07/09 03:23:44;;;;;;;11.73;7.60;;;23.30;99.90;;;;;;5006358;28;20954;-84
2023/07/09 03:26:10;;;;;;;12.83;8.37;;;23.30;99.90;;;;;;5019981;28;20549;-84
2023/07/09 03:28:35;;;;;;;10.93;8.40;;;23.30;99.90;;;;;;5010371;28;20455;-84
2023/07/09 03:31:01;;;;;;;14.70;9.50;;;23.20;99.90;;;;;;5023584;28;20205;-84
2023/07/09 03:33:26;;;;;;;10.73;8.17;;;23.00;1.00;;;;;;5009387;28;20194;-84
2023/07/09 03:35:52;;;;;;;13.50;8.20;;;22.90;1.00;;;;;;5011071;28;20210;-84
2023/07/09 03:38:18;;;;;;;16.00;7.87;;;22.90;1.00;;;;;;5012163;28;20577;-84
2023/07/09 03:40:44;;;;;;;13.80;7.47;;;22.90;1.00;;;;;;5014485;28;21207;-85
2023/07/09 03:43:10;;;;;;;14.67;8.13;;;22.90;1.00;;;;;;5030554;28;20432;-84
2023/07/09 03:45:37;;;;;;;10.10;6.87;;;22.90;1.00;;;;;;5014905;28;20186;-85
2023/07/09 03:48:04;;;;;;;13.00;7.80;;;23.00;1.00;;;;;;5011886;28;20440;-84
2023/07/09 03:50:30;;;;;;;12.17;7.63;;;23.00;1.00;;;;;;5018963;28;20443;-84
2023/07/09 03:52:55;;;;;;;10.37;6.63;;;23.00;1.00;;;;;;5014067;28;21268;-84
2023/07/09 03:55:21;;;;;;;14.20;8.20;;;23.00;1.00;;;;;;5013294;28;20193;-83
2023/07/09 03:57:47;;;;;;;11.40;7.37;;;23.00;1.00;;;;;;5008384;28;20224;-84
2023/07/09 04:00:14;;;;;;;10.67;6.97;;;23.00;1.00;;;;;;5008012;28;20601;-84
2023/07/09 04:02:45;;;;;;;13.03;7.03;;;23.00;1.00;;;;;;5007903;28;20206;-84
2023/07/09 04:05:11;;;;;;;13.57;8.20;;;23.00;1.00;;;;;;5025974;28;20420;-84
2023/07/09 04:07:37;;;;;;;13.83;8.40;;;23.00;1.00;;;;;;5023687;28;20497;-83
2023/07/09 04:10:04;;;;;;;13.27;7.67;;;22.90;1.00;;;;;;5004386;28;20566;-85
2023/07/09 04:12:30;;;;;;;13.80;7.77;;;22.90;1.00;;;;;;5013833;28;21203;-84
2023/07/09 04:14:55;;;;;;;13.03;8.13;;;23.00;1.00;;;;;;5014053;28;20465;-85
2023/07/09 04:17:22;;;;;;;17.03;7.97;;;23.10;1.00;;;;;;5012880;28;20232;-85
2023/07/09 04:19:51;;;;;;;15.83;8.53;;;23.10;1.00;;;;;;5026476;28;20172;-85
2023/07/09 04:22:17;;;;;;;16.13;8.80;;;23.20;1.00;;;;;;5010869;28;20518;-84
2023/07/09 04:24:43;;;;;;;12.40;8.83;;;23.20;1.00;;;;;;5013181;28;20517;-84
2023/07/09 04:27:09;;;;;;;13.30;7.93;;;23.20;1.00;;;;;;5017055;28;20452;-84
2023/07/09 04:29:38;;;;;;;16.27;7.80;;;23.10;1.00;;;;;;5021658;28;20439;-85
2023/07/09 04:32:05;;;;;;;13.57;8.57;;;23.10;1.00;;;;;;5003293;28;20207;-84
2023/07/09 04:34:30;;;;;;;13.70;8.00;;;23.10;1.00;;;;;;4999947;28;20526;-84
2023/07/09 04:36:56;;;;;;;11.03;7.63;;;23.10;1.00;;;;;;5018421;28;20491;-84
2023/07/09 04:39:22;;;;;;;13.23;8.83;;;23.10;1.00;;;;;;5024264;28;20190;-84
2023/07/09 04:41:47;;;;;;;13.50;8.50;;;23.10;1.00;;;;;;5023711;28;20676;-84
2023/07/09 04:44:13;;;;;;;13.77;8.53;;;23.10;1.00;;;;;;5022234;28;20644;-84
2023/07/09 04:46:39;;;;;;;18.33;9.30;;;23.10;1.00;;;;;;5034555;28;20414;-84
2023/07/09 04:49:05;;;;;;;13.00;8.60;;;23.10;1.00;;;;;;5012069;28;20453;-84
2023/07/09 04:51:30;;;;;;;15.03;8.33;;;23.20;1.00;;;;;;5008417;28;20213;-84
2023/07/09 04:53:56;;;;;;;10.33;8.70;;;23.30;1.00;;;;;;5010014;28;20769;-84
2023/07/09 04:56:22;;;;;;;15.50;9.10;;;23.40;1.00;;;;;;5013760;28;20623;-84
2023/07/09 04:58:48;;;;;;;13.60;8.60;;;23.30;1.00;;;;;;5013606;28;20222;-84
2023/07/09 05:01:13;;;;;;;16.57;9.40;;;23.30;1.00;;;;;;5009610;28;20464;-84
2023/07/09 05:03:39;;;;;;;11.50;7.57;;;23.50;1.00;;;;;;5011420;28;20568;-84
2023/07/09 05:06:04;;;;;;;15.20;8.77;;;23.70;1.00;;;;;;5026347;28;20588;-84
2023/07/09 05:08:30;;;;;;;13.33;9.10;;;23.90;1.00;;;;;;5007103;28;20190;-84
2023/07/09 05:11:00;;;;;;;15.23;7.83;;;23.90;1.00;;;;;;5006075;28;20203;-84
2023/07/09 05:13:27;;;;;;;21.80;8.97;;;24.00;1.00;;;;;;5007200;28;20191;-84
2023/07/09 05:15:52;;;;;;;13.27;8.13;;;23.90;1.00;;;;;;5020163;28;20438;-83
2023/07/09 05:18:18;;;;;;;12.33;8.40;;;24.00;1.00;;;;;;5012862;28;20484;-84
2023/07/09 05:20:47;;;;;;;19.13;8.43;;;24.20;99.90;;;;;;5013563;28;20229;-85
2023/07/09 05:23:13;;;;;;;14.40;8.70;;;24.30;99.90;;;;;;5018780;28;20826;-83
2023/07/09 05:25:38;;;;;;;19.03;9.50;;;24.40;99.90;;;;;;5002281;28;20477;-85
2023/07/09 05:28:05;;;;;;;13.90;8.47;;;24.50;99.90;;;;;;5014827;28;20765;-84
2023/07/09 05:30:31;;;;;;;15.20;9.03;;;24.60;99.90;;;;;;5001573;28;20689;-85
2023/07/09 05:32:57;;;;;;;13.97;8.40;;;24.80;99.90;;;;;;5013729;28;20463;-84
2023/07/09 05:35:25;;;;;;;11.80;8.13;;;24.90;99.90;;;;;;5005703;28;20569;-84
2023/07/09 05:37:51;;;;;;;17.03;8.97;;;24.80;99.90;;;;;;5001016;28;20468;-84
2023/07/09 05:40:16;;;;;;;15.10;8.30;;;25.00;99.90;;;;;;5023626;28;20831;-85
2023/07/09 05:42:42;;;;;;;9.33;8.10;;;25.00;99.90;;;;;;5015488;28;20479;-84
2023/07/09 05:45:08;;;;;;;10.77;7.70;;;25.10;99.90;;;;;;5013158;28;20587;-85
2023/07/09 05:47:33;;;;;;;13.63;8.40;;;25.30;99.90;;;;;;5030363;28;20190;-85
2023/07/09 05:49:59;;;;;;;12.20;8.43;;;25.60;99.90;;;;;;5016006;28;20425;-85
2023/07/09 05:52:24;;;;;;;10.03;7.83;;;25.70;99.90;;;;;;5000105;28;20580;-85
2023/07/09 05:54:51;;;;;;;12.00;7.97;;;25.90;99.90;;;;;;5018752;28;20255;-84
2023/07/09 05:57:17;;;;;;;10.50;7.83;;;26.10;99.90;;;;;;5016717;28;20268;-85
2023/07/09 05:59:43;;;;;;;12.03;7.77;;;26.30;99.90;;;;;;5020406;28;20441;-84
2023/07/09 06:02:12;;;;;;;12.53;9.00;;;26.40;99.90;;;;;;5005739;28;20457;-85
2023/07/09 06:04:38;;;;;;;15.47;9.10;;;26.50;99.90;;;;;;5014402;28;20190;-85
2023/07/09 06:07:04;;;;;;;13.23;8.10;;;26.70;99.90;;;;;;5010645;28;20438;-85
2023/07/09 06:09:30;;;;;;;13.70;8.67;;;26.70;99.90;;;;;;4995685;28;20446;-86
2023/07/09 06:11:56;;;;;;;10.80;8.73;;;27.10;99.90;;;;;;4998985;28;20854;-84
2023/07/09 06:14:21;;;;;;;8.70;7.20;;;27.90;99.90;;;;;;5017491;28;20476;-84
2023/07/09 06:16:47;;;;;;;11.20;7.57;;;29.50;99.90;;;;;;5013073;28;20207;-84
2023/07/09 06:19:12;;;;;;;12.37;6.90;;;31.80;99.90;;;;;;4999081;28;20301;-84
2023/07/09 06:21:39;;;;;;;11.43;7.23;;;33.90;99.90;;;;;;5003777;28;20210;-85
2023/07/09 06:24:06;;;;;;;8.93;6.10;;;35.80;99.90;;;;;;5005673;28;20707;-85
2023/07/09 06:26:32;;;;;;;10.97;7.27;;;36.90;99.90;;;;;;5002693;28;20483;-84
2023/07/09 06:28:58;;;;;;;8.87;6.13;;;38.70;93.80;;;;;;5009185;28;20474;-84
2023/07/09 06:31:24;;;;;;;7.40;5.83;;;40.40;81.30;;;;;;5005442;28;20212;-86
2023/07/09 06:33:50;;;;;;;7.47;5.53;;;41.60;68.30;;;;;;5008077;28;20188;-85
2023/07/09 06:36:17;;;;;;;7.00;5.97;;;41.60;52.00;;;;;;5005532;28;20505;-86
2023/07/09 06:38:44;;;;;;;10.73;6.63;;;42.30;44.60;;;;;;5004419;28;20444;-85
2023/07/09 06:41:09;;;;;;;7.23;6.00;;;43.50;38.60;;;;;;5019980;28;20463;-84
2023/07/09 06:43:38;;;;;;;6.27;5.17;;;44.70;33.40;;;;;;5005924;28;20431;-86
2023/07/09 06:46:04;;;;;;;9.07;5.97;;;45.20;25.80;;;;;;5010748;28;20179;-86
2023/07/09 06:48:30;;;;;;;6.43;5.70;;;44.80;21.00;;;;;;5008049;28;21754;-85
2023/07/09 06:50:58;;;;;;;6.77;6.10;;;45.10;16.20;;;;;;5024304;28;20460;-85
2023/07/09 06:53:25;;;;;;;5.93;5.30;;;44.60;12.00;;;;;;5007012;28;20277;-86
2023/07/09 06:55:52;;;;;;;6.50;5.30;;;45.50;9.90;;;;;;5012853;28;20437;-86
2023/07/09 06:58:18;;;;;;;7.90;5.90;;;46.50;8.30;;;;;;5008618;28;20571;-87
2023/07/09 07:00:44;;;;;;;7.67;6.77;;;47.90;5.70;;;;;;5009649;28;21624;-86
2023/07/09 07:03:10;;;;;;;7.70;4.73;;;48.50;2.90;;;;;;4999872;28;20216;-86
2023/07/09 07:05:35;;;;;;;6.77;5.90;;;49.20;1.00;;;;;;5000378;28;20442;-86
2023/07/09 07:08:03;;;;;;;8.63;5.60;;;49.10;1.00;;;;;;4995188;28;20214;-87
2023/07/09 07:10:29;;;;;;;7.27;4.73;;;49.80;1.00;;;;;;5005399;28;20187;-85
2023/07/09 07:12:56;;;;;;;5.07;4.60;;;51.20;1.00;;;;;;5010035;28;21227;-87
2023/07/09 07:15:24;;;;;;;8.60;4.80;;;52.40;1.00;;;;;;5000198;28;20201;-87
2023/07/09 07:17:49;;;;;;;6.07;4.97;;;52.60;1.00;;;;;;4999620;28;20257;-87
2023/07/09 07:20:16;;;;;;;8.35;4.97;;;53.20;1.00;;;;;;5008136;28;20174;-86
2023/07/09 07:22:41;;;;;;;8.55;4.65;;;53.70;1.00;;;;;;5010320;28;20203;-86
2023/07/09 07:25:08;;;;;;;5.38;4.47;;;52.40;1.00;;;;;;5010590;28;20185;-86
2023/07/09 07:27:34;;;;;;;9.82;4.22;;;52.20;1.00;;;;;;4996565;28;20259;-87
2023/07/09 07:30:00;;;;;;;7.18;4.93;;;52.50;1.00;;;;;;5008981;28;20219;-86
2023/07/09 07:32:26;;;;;;;5.65;4.63;;;52.60;1.00;;;;;;4999211;28;20253;-87
2023/07/09 07:34:52;;;;;;;5.97;4.20;;;54.30;1.00;;;;;;5015333;28;20591;-87
2023/07/09 07:37:21;;;;;;;5.13;4.68;;;54.80;1.00;;;;;;5024546;28;20197;-88
2023/07/09 07:39:47;;;;;;;7.90;4.75;;;54.60;1.00;;;;;;5006259;28;20178;-86
2023/07/09 07:42:13;;;;;;;4.70;4.20;;;54.80;1.00;;;;;;5003810;28;20206;-86
2023/07/09 07:44:39;;;;;;;4.90;4.40;;;54.50;1.00;;;;;;5005144;28;20266;-87
2023/07/09 07:47:05;;;;;;;8.02;4.57;;;55.10;1.00;;;;;;5010538;28;20597;-87
2023/07/09 07:49:31;;;;;;;5.50;4.07;;;54.70;1.00;;;;;;5015994;28;20178;-86
2023/07/09 07:51:56;;;;;;;6.90;5.20;;;54.70;1.00;;;;;;5018821;28;20676;-87
2023/07/09 07:54:22;;;;;;;7.82;4.32;;;55.40;1.00;;;;;;4999835;28;20187;-87
2023/07/09 07:56:47;;;;;;;7.65;4.68;;;54.50;1.00;;;;;;5011087;28;20205;-87
2023/07/09 07:59:14;;;;;;;5.38;4.88;;;54.70;1.00;;;;;;5018195;28;20202;-85
2023/07/09 08:01:39;;;;;;;4.78;4.07;;;54.80;1.00;;;;;;5007897;28;20203;-85
2023/07/09 08:04:05;;;;;;;6.45;4.47;;;54.20;1.00;;;;;;5008594;28;20182;-86
2023/07/09 08:06:31;;;;;;;6.50;4.57;;;52.90;1.00;;;;;;5010500;28;20550;-85
2023/07/09 08:08:57;;;;;;;6.07;4.40;;;51.20;1.00;;;;;;5003300;28;20558;-86
2023/07/09 08:11:24;;;;;;;5.00;4.60;;;51.70;1.00;;;;;;4997951;28;20304;-85
2023/07/09 08:13:49;;;;;;;6.30;4.30;;;51.80;1.00;;;;;;5009280;28;20183;-86
2023/07/09 08:16:15;;;;;;;6.47;4.23;;;51.60;1.00;;;;;;4996976;28;20187;-86
2023/07/09 08:18:43;;;;;;;6.10;4.70;;;51.40;1.00;;;;;;4999865;28;20672;-84
2023/07/09 08:21:09;;;;;;;4.70;4.30;;;51.70;1.00;;;;;;4998232;28;20206;-85
2023/07/09 08:23:35;;;;;;;4.70;4.30;;;51.60;1.00;;;;;;4997933;28;20194;-84
2023/07/09 08:26:02;;;;;;;7.83;4.73;;;51.70;1.00;;;;;;5002057;28;20568;-85
2023/07/09 08:28:29;;;;;;;5.07;4.27;;;52.00;1.00;;;;;;5006775;28;20187;-84
2023/07/09 08:30:56;;;;;;;4.47;4.07;;;52.10;1.00;;;;;;5020596;28;20238;-85
2023/07/09 08:33:23;;;;;;;6.03;4.67;;;52.10;1.00;;;;;;4996153;28;20700;-84
2023/07/09 08:35:50;;;;;;;5.60;3.50;;;52.70;1.00;;;;;;5000733;28;20193;-84
2023/07/09 08:38:15;;;;;;;6.95;4.57;;;52.80;1.00;;;;;;5001410;28;20688;-85
2023/07/09 08:40:48;;;;;;;6.68;4.03;;;54.20;1.00;;;;;;5001181;28;20218;-85
2023/07/09 08:43:32;;;;;;;8.73;4.32;;;54.30;1.00;;;;;;5002476;28;20190;-85
2023/07/09 08:46:21;;;;;;;6.22;4.47;;;54.90;1.00;;;;;;4996455;28;20566;-85
2023/07/09 08:48:49;;;;;;;7.30;4.18;;;54.00;1.00;;;;;;4987488;28;20187;-85
2023/07/09 08:51:17;;;;;;;9.60;4.10;;;54.60;1.00;;;;;;4999466;28;20195;-85
2023/07/09 08:53:55;;;;;;;4.90;4.40;;;55.30;1.00;;;;;;5000998;28;20190;-85
2023/07/09 08:56:22;;;;;;;5.20;4.70;;;55.50;1.00;;;;;;4994997;28;20178;-86
2023/07/09 08:58:49;;;;;;;6.70;4.22;;;54.70;1.00;;;;;;5000440;28;20572;-86
2023/07/09 09:01:39;;;;;;;6.30;4.28;;;54.20;1.00;;;;;;5001704;28;20202;-86
2023/07/09 09:04:19;;;;;;;4.20;3.80;;;53.70;1.00;;;;;;4991724;28;20182;-85
2023/07/09 09:06:50;;;;;;;6.18;4.60;;;53.90;1.00;;;;;;4991429;28;20205;-85
2023/07/09 09:09:30;;;;;;;4.63;4.13;;;53.30;1.00;;;;;;5003311;28;20187;-84
2023/07/09 09:12:19;;;;;;;7.47;4.13;;;53.70;1.00;;;;;;4995743;28;20662;-85
2023/07/09 09:14:54;;;;;;;4.95;4.30;;;54.20;1.00;;;;;;4995382;28;20194;-84
2023/07/09 09:17:20;;;;;;;5.13;4.63;;;53.90;1.00;;;;;;5017072;28;20202;-85
2023/07/09 09:20:10;;;;;;;4.07;3.75;;;54.80;1.00;;;;;;5018596;28;20190;-85
2023/07/09 09:23:00;;;;;;;4.25;3.65;;;54.80;1.00;;;;;;5000437;28;20210;-84
2023/07/09 09:25:31;;;;;;;6.25;3.88;;;54.10;1.00;;;;;;4998048;28;20191;-85
2023/07/09 09:28:02;;;;;;;7.13;3.97;;;53.00;1.00;;;;;;5006844;28;20567;-85
2023/07/09 09:30:28;;;;;;;4.50;3.67;;;53.00;1.00;;;;;;5004153;28;20217;-84
2023/07/09 09:33:09;;;;;;;5.77;3.60;;;52.70;1.00;;;;;;4989528;28;20232;-85
2023/07/09 09:35:37;;;;;;;6.77;4.20;;;53.00;1.00;;;;;;4996609;28;20190;-85
2023/07/09 09:38:12;;;;;;;6.27;4.40;;;53.20;1.00;;;;;;5000147;28;20230;-85
2023/07/09 09:40:37;;;;;;;6.35;3.83;;;53.90;1.00;;;;;;4993700;28;20539;-85
2023/07/09 09:43:14;;;;;;;4.32;3.35;;;54.30;1.00;;;;;;5002571;28;20183;-84
2023/07/09 09:45:40;;;;;;;4.32;3.90;;;53.90;1.00;;;;;;5001021;28;20232;-86
2023/07/09 09:48:18;;;;;;;9.33;4.57;;;53.70;1.00;;;;;;4999792;28;21185;-85
2023/07/09 09:50:46;;;;;;;4.50;3.90;;;53.90;1.00;;;;;;5000010;28;20619;-85
2023/07/09 09:53:22;;;;;;;6.53;4.03;;;52.90;1.00;;;;;;5001874;28;20202;-85
2023/07/09 09:55:49;;;;;;;7.80;4.43;;;53.80;1.00;;;;;;5006926;28;20185;-85
2023/07/09 09:58:16;;;;;;;5.63;3.70;;;52.60;1.00;;;;;;5003144;28;20222;-84
2023/07/09 10:00:49;;;;;;;5.00;4.30;;;51.40;1.00;;;;;;5000770;28;20179;-84
2023/07/09 10:03:14;;;;;;;6.53;3.60;;;51.20;1.00;;;;;;4997419;28;20432;-85
2023/07/09 10:05:59;;;;;;;5.83;4.10;;;52.00;1.00;;;;;;5002775;28;20491;-85
2023/07/09 10:08:52;;;;;;;5.67;4.23;;;51.70;1.00;;;;;;5002304;28;20656;-85
2023/07/09 10:11:42;;;;;;;5.60;3.73;;;52.10;1.00;;;;;;4995746;28;20213;-86
2023/07/09 10:14:36;;;;;;;4.75;4.18;;;53.40;1.00;;;;;;5017344;28;20653;-86
2023/07/09 10:17:36;;;;;;;5.00;4.25;;;53.70;1.00;;;;;;4991941;28;20214;-86
2023/07/09 10:20:29;;;;;;;7.80;4.05;;;53.40;1.00;;;;;;4972274;28;20189;-85
2023/07/09 10:23:02;;;;;;;5.90;3.93;;;53.50;1.00;;;;;;5008025;28;20178;-86
2023/07/09 10:25:52;;;;;;;4.80;3.67;;;53.10;1.00;;;;;;5003019;28;20176;-84
2023/07/09 10:28:43;;;;;;;4.57;3.55;;;53.60;1.00;;;;;;5004245;28;20631;-85
2023/07/09 10:31:31;;;;;;;4.75;3.67;;;54.20;1.00;;;;;;5004162;28;20218;-85
2023/07/09 10:34:16;;;;;;;5.75;4.03;;;54.80;1.00;;;;;;4995336;28;20558;-85
2023/07/09 10:36:53;;;;;;;7.53;4.28;;;55.00;1.00;;;;;;5003302;28;20229;-86
2023/07/09 10:39:25;;;;;;;5.38;3.80;;;54.60;1.00;;;;;;4995461;28;20185;-85
2023/07/09 10:41:57;;;;;;;5.75;3.28;;;54.10;1.00;;;;;;5002343;28;20255;-85
2023/07/09 10:44:37;;;;;;;5.47;4.03;;;54.60;1.00;;;;;;5003520;28;20257;-86
2023/07/09 10:47:09;;;;;;;5.68;3.38;;;55.30;1.00;;;;;;4993043;28;20183;-84
2023/07/09 10:49:42;;;;;;;6.65;3.67;;;55.20;1.00;;;;;;5003230;28;20568;-86
2023/07/09 10:52:20;;;;;;;5.78;3.50;;;54.30;1.00;;;;;;5006360;28;20293;-85
2023/07/09 10:55:18;;;;;;;5.20;4.00;;;53.90;1.00;;;;;;4997908;28;20543;-84
2023/07/09 10:58:11;;;;;;;5.13;3.53;;;52.90;1.00;;;;;;4995708;28;20215;-85
2023/07/09 11:00:39;;;;;;;4.63;3.20;;;52.10;1.00;;;;;;5006342;28;20277;-86
2023/07/09 11:03:46;;;;;;;4.13;3.73;;;51.60;1.00;;;;;;4998586;28;20602;-85
2023/07/09 11:06:30;;;;;;;4.30;3.90;;;51.00;1.00;;;;;;4969556;28;20198;-85
2023/07/09 11:08:57;;;;;;;4.43;4.03;;;50.90;1.00;;;;;;5003713;28;20525;-84
2023/07/09 11:11:38;;;;;;;4.73;3.20;;;50.80;1.00;;;;;;5010895;28;20449;-85
2023/07/09 11:14:11;;;;;;;6.60;2.87;;;50.70;1.00;;;;;;5007775;28;20471;-85
2023/07/09 11:16:41;;;;;;;3.80;3.33;;;51.00;1.00;;;;;;5001207;28;20462;-84
2023/07/09 11:19:16;;;;;;;4.70;3.17;;;51.50;1.00;;;;;;4998309;28;21933;-83
2023/07/09 11:22:07;;;;;;;3.83;3.20;;;51.80;1.00;;;;;;4999288;28;20493;-85
2023/07/09 11:24:50;;;;;;;5.73;2.87;;;51.80;1.00;;;;;;5003118;28;20445;-86
2023/07/09 11:27:18;;;;;;;4.57;3.60;;;51.90;1.00;;;;;;4997724;28;20445;-84
2023/07/09 11:29:55;;;;;;;5.90;3.43;;;51.70;1.00;;;;;;5015106;28;20504;-83
2023/07/09 11:32:24;;;;;;;7.43;3.20;;;51.40;1.00;;;;;;4995340;28;20504;-85
2023/07/09 11:34:50;;;;;;;6.77;3.60;;;50.30;1.00;;;;;;5001423;28;20994;-86
2023/07/09 11:37:16;;;;;;;3.83;2.60;;;49.80;1.00;;;;;;5004057;28;20547;-85
2023/07/09 11:39:47;;;;;;;6.63;3.17;;;49.40;1.00;;;;;;5002002;28;20214;-84
2023/07/09 11:42:31;;;;;;;4.40;3.00;;;48.90;1.00;;;;;;4994230;28;20460;-84
2023/07/09 11:44:58;;;;;;;6.20;3.20;;;48.80;1.00;;;;;;5006965;28;20466;-84
2023/07/09 11:47:30;;;;;;;7.53;3.00;;;48.70;1.00;;;;;;4997460;28;20433;-84
2023/07/09 11:50:01;;;;;;;3.80;2.90;;;48.50;1.00;;;;;;5002199;28;20534;-85
2023/07/09 11:52:48;;;;;;;4.27;3.17;;;48.50;1.00;;;;;;5002066;28;20528;-85
2023/07/09 11:55:41;;;;;;;3.80;2.50;;;49.00;1.00;;;;;;4994438;28;20440;-85
2023/07/09 11:58:18;;;;;;;4.20;2.70;;;49.30;1.00;;;;;;5000529;28;20462;-84
2023/07/09 12:00:53;;;;;;;3.33;2.60;;;49.40;1.00;;;;;;5008385;28;20445;-85
2023/07/09 12:03:25;;;;;;;3.53;2.60;;;49.50;1.00;;;;;;4994995;28;20465;-84
2023/07/09 12:05:54;;;;;;;3.90;2.57;;;49.10;1.00;;;;;;4994810;28;20453;-84
2023/07/09 12:08:28;;;;;;;3.13;2.60;;;49.00;1.00;;;;;;4998911;28;20442;-85
2023/07/09 12:10:54;;;;;;;4.50;3.07;;;48.70;1.00;;;;;;5000963;28;20469;-85
2023/07/09 12:13:20;;;;;;;3.63;2.83;;;48.20;1.00;;;;;;4994728;28;20447;-83
2023/07/09 12:15:46;;;;;;;6.13;2.70;;;47.40;1.00;;;;;;4997893;28;20191;-84
2023/07/09 12:18:14;;;;;;;3.27;2.60;;;46.70;1.00;;;;;;5005127;28;20209;-84
2023/07/09 12:20:44;;;;;;;6.67;3.07;;;46.20;1.00;;;;;;4999573;28;20948;-87
2023/07/09 12:23:32;;;;;;;5.17;2.40;;;45.90;1.00;;;;;;5003685;28;21060;-84
2023/07/09 12:26:03;;;;;;;3.73;2.87;;;45.70;1.00;;;;;;5003050;28;20450;-84
2023/07/09 12:28:29;;;;;;;6.23;3.17;;;45.20;1.00;;;;;;4997002;28;20439;-84
2023/07/09 12:30:55;;;;;;;3.50;2.97;;;45.00;1.00;;;;;;4998482;28;20602;-86
2023/07/09 12:33:22;;;;;;;4.57;2.80;;;44.60;1.00;;;;;;4997832;28;20469;-84
2023/07/09 12:35:57;;;;;;;4.10;2.80;;;44.10;1.00;;;;;;4997317;28;20214;-84
2023/07/09 12:38:26;;;;;;;7.43;2.87;;;43.60;1.00;;;;;;4998749;28;20853;-84
2023/07/09 12:40:53;;;;;;;5.60;3.77;;;43.20;1.00;;;;;;5000882;28;20497;-84
2023/07/09 12:43:25;;;;;;;6.70;3.30;;;42.60;1.00;;;;;;4994902;28;20530;-84
2023/07/09 12:45:57;;;;;;;4.13;3.53;;;42.20;1.00;;;;;;5003430;28;20445;-83
2023/07/09 12:48:25;;;;;;;5.10;2.80;;;41.90;1.00;;;;;;5005760;28;20813;-84
2023/07/09 12:50:51;;;;;;;6.50;3.63;;;41.50;1.00;;;;;;5006769;28;20842;-83
2023/07/09 12:53:21;;;;;;;5.63;3.90;;;41.00;1.00;;;;;;5005015;28;20555;-84
2023/07/09 12:55:49;;;;;;;9.50;3.83;;;40.30;1.00;;;;;;4999320;28;20186;-85
2023/07/09 12:58:27;;;;;;;3.53;3.10;;;39.60;1.00;;;;;;5000727;28;20478;-84
2023/07/09 13:00:55;;;;;;;4.17;3.77;;;39.00;1.00;;;;;;5001320;28;20977;-84